Davis, Missouri
Current Conditions -  °F | °C
As of 9:54 PM on Tuesday 27 Jan 2015 (Local Time) from KSET Reporting Station
Haze Haze  
Wind Chill: 29°   Ceiling: Unl
Heat Index: 29°   Visibility: 5mi
Dew Point: 27°   Wind: 3mph
Humidity: 92%   Direction: 90°E
Pressure: 30.24"   Gusts: NA
Location:  39.0252°N, 90.9568°W
Report Text: KSET 280354Z AUTO 09003KT 5SM BR CLR M02/M03 A3024 RMK AO2 SLP244 T10171028
Loading
Personal Weather Stations






























Interactive Weather Map New forecast layout! Learn more

10-Day Weather Forecast

Advertisements
Track Severe Weather on mobile